sensor_id;sensor_type;location;lat;lon;timestamp;P1;durP1;ratioP1;P2;durP2;ratioP2
19329;SDS011;9799;48.214;16.388;2022-07-11T00:00:09;1.02;;;0.90;;
19329;SDS011;9799;48.214;16.388;2022-07-11T00:03:31;2.28;;;0.75;;
19329;SDS011;9799;48.214;16.388;2022-07-11T00:06:55;0.85;;;0.85;;
19329;SDS011;9799;48.214;16.388;2022-07-11T00:10:18;1.08;;;0.88;;
19329;SDS011;9799;48.214;16.388;2022-07-11T00:13:39;1.67;;;0.90;;
19329;SDS011;9799;48.214;16.388;2022-07-11T00:17:00;2.30;;;1.08;;
19329;SDS011;9799;48.214;16.388;2022-07-11T00:20:21;1.13;;;1.00;;
19329;SDS011;9799;48.214;16.388;2022-07-11T00:23:43;1.63;;;1.10;;
19329;SDS011;9799;48.214;16.388;2022-07-11T00:27:05;3.58;;;1.45;;
19329;SDS011;9799;48.214;16.388;2022-07-11T00:30:27;1.05;;;0.95;;
19329;SDS011;9799;48.214;16.388;2022-07-11T00:33:48;2.05;;;1.13;;
19329;SDS011;9799;48.214;16.388;2022-07-11T00:37:09;1.40;;;1.08;;
19329;SDS011;9799;48.214;16.388;2022-07-11T00:40:30;2.45;;;1.10;;
19329;SDS011;9799;48.214;16.388;2022-07-11T00:43:53;1.70;;;0.93;;
19329;SDS011;9799;48.214;16.388;2022-07-11T00:47:15;1.48;;;1.00;;
19329;SDS011;9799;48.214;16.388;2022-07-11T00:50:36;3.20;;;0.80;;
19329;SDS011;9799;48.214;16.388;2022-07-11T00:53:58;1.90;;;0.80;;
19329;SDS011;9799;48.214;16.388;2022-07-11T00:57:20;1.23;;;0.90;;
19329;SDS011;9799;48.214;16.388;2022-07-11T01:00:44;1.70;;;0.95;;
19329;SDS011;9799;48.214;16.388;2022-07-11T01:04:06;1.67;;;1.00;;
19329;SDS011;9799;48.214;16.388;2022-07-11T01:07:30;1.65;;;0.90;;
19329;SDS011;9799;48.214;16.388;2022-07-11T01:10:52;2.95;;;1.23;;
19329;SDS011;9799;48.214;16.388;2022-07-11T01:14:13;0.57;;;0.57;;
19329;SDS011;9799;48.214;16.388;2022-07-11T01:17:36;1.20;;;0.82;;
19329;SDS011;9799;48.214;16.388;2022-07-11T01:20:57;2.80;;;1.00;;
19329;SDS011;9799;48.214;16.388;2022-07-11T01:24:20;1.73;;;0.98;;
19329;SDS011;9799;48.214;16.388;2022-07-11T01:27:41;1.85;;;1.05;;
19329;SDS011;9799;48.214;16.388;2022-07-11T01:31:03;2.67;;;1.00;;
19329;SDS011;9799;48.214;16.388;2022-07-11T01:34:24;1.35;;;0.95;;
19329;SDS011;9799;48.214;16.388;2022-07-11T01:37:45;0.70;;;0.70;;
19329;SDS011;9799;48.214;16.388;2022-07-11T01:41:08;1.63;;;0.88;;
19329;SDS011;9799;48.214;16.388;2022-07-11T01:44:29;2.17;;;1.00;;
19329;SDS011;9799;48.214;16.388;2022-07-11T01:47:50;1.40;;;0.82;;
19329;SDS011;9799;48.214;16.388;2022-07-11T01:51:12;2.33;;;0.93;;
19329;SDS011;9799;48.214;16.388;2022-07-11T01:54:33;3.28;;;1.13;;
19329;SDS011;9799;48.214;16.388;2022-07-11T01:57:55;2.22;;;1.42;;
19329;SDS011;9799;48.214;16.388;2022-07-11T02:01:17;3.08;;;1.00;;
19329;SDS011;9799;48.214;16.388;2022-07-11T02:04:38;1.23;;;0.90;;
19329;SDS011;9799;48.214;16.388;2022-07-11T02:07:59;1.88;;;1.30;;
19329;SDS011;9799;48.214;16.388;2022-07-11T02:11:32;1.15;;;0.77;;
19329;SDS011;9799;48.214;16.388;2022-07-11T02:14:57;3.25;;;1.17;;
19329;SDS011;9799;48.214;16.388;2022-07-11T02:18:19;2.47;;;0.95;;
19329;SDS011;9799;48.214;16.388;2022-07-11T02:21:40;1.15;;;0.93;;
19329;SDS011;9799;48.214;16.388;2022-07-11T02:25:02;1.48;;;1.10;;
19329;SDS011;9799;48.214;16.388;2022-07-11T02:28:24;2.00;;;1.05;;
19329;SDS011;9799;48.214;16.388;2022-07-11T02:31:46;1.35;;;1.08;;
19329;SDS011;9799;48.214;16.388;2022-07-11T02:35:07;1.35;;;1.08;;
19329;SDS011;9799;48.214;16.388;2022-07-11T02:38:29;2.58;;;1.20;;
19329;SDS011;9799;48.214;16.388;2022-07-11T02:41:50;1.67;;;1.13;;
19329;SDS011;9799;48.214;16.388;2022-07-11T02:45:13;1.10;;;1.00;;
19329;SDS011;9799;48.214;16.388;2022-07-11T02:48:35;1.52;;;1.40;;
19329;SDS011;9799;48.214;16.388;2022-07-11T02:51:56;2.90;;;1.10;;
19329;SDS011;9799;48.214;16.388;2022-07-11T02:55:18;0.88;;;0.88;;
19329;SDS011;9799;48.214;16.388;2022-07-11T02:58:39;2.20;;;1.30;;
19329;SDS011;9799;48.214;16.388;2022-07-11T03:02:00;1.13;;;1.00;;
19329;SDS011;9799;48.214;16.388;2022-07-11T03:05:25;2.28;;;1.20;;
19329;SDS011;9799;48.214;16.388;2022-07-11T03:08:47;1.30;;;1.20;;
19329;SDS011;9799;48.214;16.388;2022-07-11T03:12:08;2.13;;;1.30;;
19329;SDS011;9799;48.214;16.388;2022-07-11T03:15:29;2.50;;;1.30;;
19329;SDS011;9799;48.214;16.388;2022-07-11T03:18:50;1.63;;;1.20;;
19329;SDS011;9799;48.214;16.388;2022-07-11T03:22:14;1.73;;;1.00;;
19329;SDS011;9799;48.214;16.388;2022-07-11T03:25:35;1.73;;;1.10;;
19329;SDS011;9799;48.214;16.388;2022-07-11T03:28:56;1.33;;;1.00;;
19329;SDS011;9799;48.214;16.388;2022-07-11T03:32:18;2.40;;;1.30;;
19329;SDS011;9799;48.214;16.388;2022-07-11T03:35:39;1.30;;;1.20;;
19329;SDS011;9799;48.214;16.388;2022-07-11T03:39:02;3.33;;;1.70;;
19329;SDS011;9799;48.214;16.388;2022-07-11T03:42:23;2.27;;;1.40;;
19329;SDS011;9799;48.214;16.388;2022-07-11T03:45:44;1.67;;;1.20;;
19329;SDS011;9799;48.214;16.388;2022-07-11T03:49:06;2.67;;;1.40;;
19329;SDS011;9799;48.214;16.388;2022-07-11T03:52:27;4.15;;;1.23;;
19329;SDS011;9799;48.214;16.388;2022-07-11T03:55:50;1.60;;;1.50;;
19329;SDS011;9799;48.214;16.388;2022-07-11T03:59:11;1.90;;;1.70;;
19329;SDS011;9799;48.214;16.388;2022-07-11T04:02:32;2.43;;;1.53;;
19329;SDS011;9799;48.214;16.388;2022-07-11T04:05:53;2.23;;;1.33;;
19329;SDS011;9799;48.214;16.388;2022-07-11T04:09:15;2.70;;;1.70;;
19329;SDS011;9799;48.214;16.388;2022-07-11T04:12:40;2.77;;;1.40;;
19329;SDS011;9799;48.214;16.388;2022-07-11T04:16:01;1.70;;;1.50;;
19329;SDS011;9799;48.214;16.388;2022-07-11T04:19:22;1.97;;;1.70;;
19329;SDS011;9799;48.214;16.388;2022-07-11T04:22:44;3.53;;;1.50;;
19329;SDS011;9799;48.214;16.388;2022-07-11T04:26:05;1.92;;;1.20;;
19329;SDS011;9799;48.214;16.388;2022-07-11T04:29:28;1.87;;;1.67;;
19329;SDS011;9799;48.214;16.388;2022-07-11T04:32:49;1.60;;;1.50;;
19329;SDS011;9799;48.214;16.388;2022-07-11T04:36:10;4.10;;;1.40;;
19329;SDS011;9799;48.214;16.388;2022-07-11T04:39:31;1.55;;;1.23;;
19329;SDS011;9799;48.214;16.388;2022-07-11T04:42:52;1.88;;;1.50;;
19329;SDS011;9799;48.214;16.388;2022-07-11T04:46:15;1.75;;;1.40;;
19329;SDS011;9799;48.214;16.388;2022-07-11T04:49:36;1.50;;;1.40;;
19329;SDS011;9799;48.214;16.388;2022-07-11T04:52:58;2.30;;;1.73;;
19329;SDS011;9799;48.214;16.388;2022-07-11T04:56:19;1.40;;;1.30;;
19329;SDS011;9799;48.214;16.388;2022-07-11T04:59:40;2.20;;;1.40;;
19329;SDS011;9799;48.214;16.388;2022-07-11T05:03:03;1.27;;;1.17;;
19329;SDS011;9799;48.214;16.388;2022-07-11T05:06:26;2.60;;;1.40;;
19329;SDS011;9799;48.214;16.388;2022-07-11T05:09:48;1.93;;;1.70;;
19329;SDS011;9799;48.214;16.388;2022-07-11T05:13:09;2.10;;;1.30;;
19329;SDS011;9799;48.214;16.388;2022-07-11T05:16:30;1.90;;;1.57;;
19329;SDS011;9799;48.214;16.388;2022-07-11T05:19:52;2.77;;;1.60;;
19329;SDS011;9799;48.214;16.388;2022-07-11T05:23:14;3.30;;;1.60;;
19329;SDS011;9799;48.214;16.388;2022-07-11T05:26:35;2.30;;;1.52;;
19329;SDS011;9799;48.214;16.388;2022-07-11T05:29:56;1.30;;;1.20;;
19329;SDS011;9799;48.214;16.388;2022-07-11T05:33:17;2.87;;;1.70;;
19329;SDS011;9799;48.214;16.388;2022-07-11T05:36:40;1.40;;;1.30;;
19329;SDS011;9799;48.214;16.388;2022-07-11T05:40:02;1.30;;;1.20;;
19329;SDS011;9799;48.214;16.388;2022-07-11T05:43:24;3.40;;;1.37;;
19329;SDS011;9799;48.214;16.388;2022-07-11T05:46:45;2.30;;;1.27;;
19329;SDS011;9799;48.214;16.388;2022-07-11T05:50:07;2.13;;;1.77;;
19329;SDS011;9799;48.214;16.388;2022-07-11T05:53:30;2.27;;;1.80;;
19329;SDS011;9799;48.214;16.388;2022-07-11T05:56:51;2.47;;;1.40;;
19329;SDS011;9799;48.214;16.388;2022-07-11T06:00:13;6.93;;;1.60;;
19329;SDS011;9799;48.214;16.388;2022-07-11T06:03:34;4.53;;;1.20;;
19329;SDS011;9799;48.214;16.388;2022-07-11T06:06:55;1.48;;;1.20;;
19329;SDS011;9799;48.214;16.388;2022-07-11T06:10:18;4.32;;;1.25;;
19329;SDS011;9799;48.214;16.388;2022-07-11T06:13:40;2.40;;;1.38;;
19329;SDS011;9799;48.214;16.388;2022-07-11T06:17:03;2.03;;;1.27;;
19329;SDS011;9799;48.214;16.388;2022-07-11T06:20:25;5.40;;;1.80;;
19329;SDS011;9799;48.214;16.388;2022-07-11T06:23:46;4.65;;;2.03;;
19329;SDS011;9799;48.214;16.388;2022-07-11T06:27:09;1.60;;;1.40;;
19329;SDS011;9799;48.214;16.388;2022-07-11T06:30:30;5.18;;;1.42;;
19329;SDS011;9799;48.214;16.388;2022-07-11T06:33:51;2.65;;;1.42;;
19329;SDS011;9799;48.214;16.388;2022-07-11T06:37:15;1.42;;;1.33;;
19329;SDS011;9799;48.214;16.388;2022-07-11T06:40:36;2.00;;;1.30;;
19329;SDS011;9799;48.214;16.388;2022-07-11T06:43:59;3.30;;;1.58;;
19329;SDS011;9799;48.214;16.388;2022-07-11T06:47:20;1.50;;;1.38;;
19329;SDS011;9799;48.214;16.388;2022-07-11T06:50:41;2.03;;;1.48;;
19329;SDS011;9799;48.214;16.388;2022-07-11T06:54:03;2.67;;;1.60;;
19329;SDS011;9799;48.214;16.388;2022-07-11T06:57:24;2.60;;;1.52;;
19329;SDS011;9799;48.214;16.388;2022-07-11T07:00:47;4.18;;;2.05;;
19329;SDS011;9799;48.214;16.388;2022-07-11T07:04:08;3.05;;;1.25;;
19329;SDS011;9799;48.214;16.388;2022-07-11T07:07:29;5.65;;;2.03;;
19329;SDS011;9799;48.214;16.388;2022-07-11T07:10:50;1.65;;;1.45;;
19329;SDS011;9799;48.214;16.388;2022-07-11T07:14:12;1.98;;;1.77;;
19329;SDS011;9799;48.214;16.388;2022-07-11T07:17:34;8.80;;;1.55;;
19329;SDS011;9799;48.214;16.388;2022-07-11T07:20:56;1.52;;;1.35;;
19329;SDS011;9799;48.214;16.388;2022-07-11T07:24:17;2.80;;;1.90;;
19329;SDS011;9799;48.214;16.388;2022-07-11T07:27:38;33.45;;;2.40;;
19329;SDS011;9799;48.214;16.388;2022-07-11T07:30:59;3.42;;;1.67;;
19329;SDS011;9799;48.214;16.388;2022-07-11T07:34:22;3.10;;;1.50;;
19329;SDS011;9799;48.214;16.388;2022-07-11T07:37:43;3.75;;;2.00;;
19329;SDS011;9799;48.214;16.388;2022-07-11T07:41:04;5.50;;;1.85;;
19329;SDS011;9799;48.214;16.388;2022-07-11T07:44:25;5.30;;;1.88;;
19329;SDS011;9799;48.214;16.388;2022-07-11T07:47:47;3.88;;;1.95;;
19329;SDS011;9799;48.214;16.388;2022-07-11T07:51:09;4.80;;;2.00;;
19329;SDS011;9799;48.214;16.388;2022-07-11T07:54:31;2.63;;;1.85;;
19329;SDS011;9799;48.214;16.388;2022-07-11T07:57:52;2.30;;;2.10;;
19329;SDS011;9799;48.214;16.388;2022-07-11T08:01:13;2.78;;;2.00;;
19329;SDS011;9799;48.214;16.388;2022-07-11T08:04:52;8.27;;;2.35;;
19329;SDS011;9799;48.214;16.388;2022-07-11T08:08:15;2.35;;;1.65;;
19329;SDS011;9799;48.214;16.388;2022-07-11T08:11:36;2.22;;;1.42;;
19329;SDS011;9799;48.214;16.388;2022-07-11T08:14:57;1.80;;;1.70;;
19329;SDS011;9799;48.214;16.388;2022-07-11T08:18:19;2.17;;;1.92;;
19329;SDS011;9799;48.214;16.388;2022-07-11T08:21:40;4.85;;;2.03;;
19329;SDS011;9799;48.214;16.388;2022-07-11T08:25:04;2.42;;;1.88;;
19329;SDS011;9799;48.214;16.388;2022-07-11T08:28:25;4.57;;;1.55;;
19329;SDS011;9799;48.214;16.388;2022-07-11T08:31:46;1.42;;;1.33;;
19329;SDS011;9799;48.214;16.388;2022-07-11T08:35:08;4.68;;;1.73;;
19329;SDS011;9799;48.214;16.388;2022-07-11T08:38:30;4.07;;;2.00;;
19329;SDS011;9799;48.214;16.388;2022-07-11T08:41:53;6.28;;;1.65;;
19329;SDS011;9799;48.214;16.388;2022-07-11T08:45:16;5.15;;;1.70;;
19329;SDS011;9799;48.214;16.388;2022-07-11T08:48:38;3.30;;;1.60;;
19329;SDS011;9799;48.214;16.388;2022-07-11T08:52:00;2.38;;;2.08;;
19329;SDS011;9799;48.214;16.388;2022-07-11T08:55:23;2.85;;;1.80;;
19329;SDS011;9799;48.214;16.388;2022-07-11T08:58:46;1.80;;;1.70;;
19329;SDS011;9799;48.214;16.388;2022-07-11T09:02:08;4.53;;;1.98;;
19329;SDS011;9799;48.214;16.388;2022-07-11T09:05:30;3.42;;;2.00;;
19329;SDS011;9799;48.214;16.388;2022-07-11T09:08:55;2.42;;;2.17;;
19329;SDS011;9799;48.214;16.388;2022-07-11T09:12:17;3.33;;;2.10;;
19329;SDS011;9799;48.214;16.388;2022-07-11T09:15:41;9.13;;;3.13;;
19329;SDS011;9799;48.214;16.388;2022-07-11T09:19:03;3.58;;;2.42;;
19329;SDS011;9799;48.214;16.388;2022-07-11T09:22:41;6.13;;;2.65;;
19329;SDS011;9799;48.214;16.388;2022-07-11T09:26:29;5.93;;;2.78;;
19329;SDS011;9799;48.214;16.388;2022-07-11T09:29:51;3.72;;;2.63;;
19329;SDS011;9799;48.214;16.388;2022-07-11T09:33:13;3.15;;;2.35;;
19329;SDS011;9799;48.214;16.388;2022-07-11T09:36:36;7.90;;;2.75;;
19329;SDS011;9799;48.214;16.388;2022-07-11T09:40:09;6.15;;;2.38;;
19329;SDS011;9799;48.214;16.388;2022-07-11T09:43:31;2.10;;;1.90;;
19329;SDS011;9799;48.214;16.388;2022-07-11T09:46:53;3.50;;;2.35;;
19329;SDS011;9799;48.214;16.388;2022-07-11T09:50:18;5.00;;;2.65;;
19329;SDS011;9799;48.214;16.388;2022-07-11T09:53:44;3.65;;;2.60;;
19329;SDS011;9799;48.214;16.388;2022-07-11T09:57:14;5.75;;;3.38;;
19329;SDS011;9799;48.214;16.388;2022-07-11T10:00:36;3.10;;;2.67;;
19329;SDS011;9799;48.214;16.388;2022-07-11T10:03:59;5.07;;;2.50;;
19329;SDS011;9799;48.214;16.388;2022-07-11T10:07:21;3.03;;;1.88;;
19329;SDS011;9799;48.214;16.388;2022-07-11T10:10:42;2.92;;;2.15;;
19329;SDS011;9799;48.214;16.388;2022-07-11T10:14:04;2.92;;;2.08;;
19329;SDS011;9799;48.214;16.388;2022-07-11T10:17:28;2.95;;;2.10;;
19329;SDS011;9799;48.214;16.388;2022-07-11T10:20:56;8.88;;;2.65;;
19329;SDS011;9799;48.214;16.388;2022-07-11T10:24:24;2.80;;;2.42;;
19329;SDS011;9799;48.214;16.388;2022-07-11T10:28:02;3.40;;;1.88;;
19329;SDS011;9799;48.214;16.388;2022-07-11T10:31:30;3.97;;;1.90;;
19329;SDS011;9799;48.214;16.388;2022-07-11T10:38:32;4.03;;;1.58;;
19329;SDS011;9799;48.214;16.388;2022-07-11T10:41:56;9.23;;;4.65;;
19329;SDS011;9799;48.214;16.388;2022-07-11T10:45:18;3.45;;;2.03;;
19329;SDS011;9799;48.214;16.388;2022-07-11T10:48:51;3.97;;;2.30;;
19329;SDS011;9799;48.214;16.388;2022-07-11T10:52:19;1.98;;;1.88;;
19329;SDS011;9799;48.214;16.388;2022-07-11T10:55:43;4.65;;;1.67;;
19329;SDS011;9799;48.214;16.388;2022-07-11T10:59:14;4.30;;;2.13;;
19329;SDS011;9799;48.214;16.388;2022-07-11T11:06:24;4.00;;;1.70;;
19329;SDS011;9799;48.214;16.388;2022-07-11T11:14:24;4.30;;;1.77;;
19329;SDS011;9799;48.214;16.388;2022-07-11T11:17:48;3.33;;;2.03;;
19329;SDS011;9799;48.214;16.388;2022-07-11T11:21:13;3.40;;;1.58;;
19329;SDS011;9799;48.214;16.388;2022-07-11T11:24:38;2.00;;;1.75;;
19329;SDS011;9799;48.214;16.388;2022-07-11T11:28:00;3.42;;;1.85;;
19329;SDS011;9799;48.214;16.388;2022-07-11T11:31:24;2.67;;;1.65;;
19329;SDS011;9799;48.214;16.388;2022-07-11T11:34:47;3.05;;;2.08;;
19329;SDS011;9799;48.214;16.388;2022-07-11T11:38:09;2.55;;;2.35;;
19329;SDS011;9799;48.214;16.388;2022-07-11T11:41:30;2.80;;;2.42;;
19329;SDS011;9799;48.214;16.388;2022-07-11T11:44:54;2.28;;;1.73;;
19329;SDS011;9799;48.214;16.388;2022-07-11T11:48:29;2.97;;;1.83;;
19329;SDS011;9799;48.214;16.388;2022-07-11T11:51:53;3.30;;;1.77;;
19329;SDS011;9799;48.214;16.388;2022-07-11T11:55:17;2.35;;;1.50;;
19329;SDS011;9799;48.214;16.388;2022-07-11T11:58:38;2.30;;;2.10;;
19329;SDS011;9799;48.214;16.388;2022-07-11T12:01:59;2.58;;;1.77;;
19329;SDS011;9799;48.214;16.388;2022-07-11T12:05:22;2.60;;;1.75;;
19329;SDS011;9799;48.214;16.388;2022-07-11T12:08:43;1.75;;;1.65;;
19329;SDS011;9799;48.214;16.388;2022-07-11T12:12:04;5.43;;;2.55;;
19329;SDS011;9799;48.214;16.388;2022-07-11T12:15:44;6.90;;;3.78;;
19329;SDS011;9799;48.214;16.388;2022-07-11T12:19:23;2.90;;;2.15;;
19329;SDS011;9799;48.214;16.388;2022-07-11T12:22:48;2.50;;;2.30;;
19329;SDS011;9799;48.214;16.388;2022-07-11T12:26:09;3.05;;;2.17;;
19329;SDS011;9799;48.214;16.388;2022-07-11T12:29:35;3.25;;;1.73;;
19329;SDS011;9799;48.214;16.388;2022-07-11T12:33:04;3.50;;;2.35;;
19329;SDS011;9799;48.214;16.388;2022-07-11T12:36:31;4.78;;;1.77;;
19329;SDS011;9799;48.214;16.388;2022-07-11T12:39:54;5.88;;;2.78;;
19329;SDS011;9799;48.214;16.388;2022-07-11T12:47:22;2.90;;;1.90;;
19329;SDS011;9799;48.214;16.388;2022-07-11T12:50:45;3.63;;;2.10;;
19329;SDS011;9799;48.214;16.388;2022-07-11T12:54:07;2.55;;;2.10;;
19329;SDS011;9799;48.214;16.388;2022-07-11T12:57:30;1.70;;;1.60;;
19329;SDS011;9799;48.214;16.388;2022-07-11T13:00:55;3.92;;;2.08;;
19329;SDS011;9799;48.214;16.388;2022-07-11T13:04:27;5.25;;;2.03;;
19329;SDS011;9799;48.214;16.388;2022-07-11T13:07:49;1.70;;;1.60;;
19329;SDS011;9799;48.214;16.388;2022-07-11T13:11:28;2.95;;;2.45;;
19329;SDS011;9799;48.214;16.388;2022-07-11T13:14:51;3.45;;;1.83;;
19329;SDS011;9799;48.214;16.388;2022-07-11T13:18:32;2.50;;;1.60;;
19329;SDS011;9799;48.214;16.388;2022-07-11T13:21:53;5.10;;;1.70;;
19329;SDS011;9799;48.214;16.388;2022-07-11T13:25:15;3.28;;;1.70;;
19329;SDS011;9799;48.214;16.388;2022-07-11T13:28:38;1.88;;;1.70;;
19329;SDS011;9799;48.214;16.388;2022-07-11T13:32:01;2.95;;;1.77;;
19329;SDS011;9799;48.214;16.388;2022-07-11T13:35:22;2.20;;;1.90;;
19329;SDS011;9799;48.214;16.388;2022-07-11T13:38:43;3.50;;;2.05;;
19329;SDS011;9799;48.214;16.388;2022-07-11T13:42:04;1.90;;;1.80;;
19329;SDS011;9799;48.214;16.388;2022-07-11T13:45:25;2.25;;;1.85;;
19329;SDS011;9799;48.214;16.388;2022-07-11T13:48:48;4.10;;;1.88;;
19329;SDS011;9799;48.214;16.388;2022-07-11T13:52:10;3.13;;;1.80;;
19329;SDS011;9799;48.214;16.388;2022-07-11T13:55:31;3.85;;;1.75;;
19329;SDS011;9799;48.214;16.388;2022-07-11T13:58:52;2.33;;;1.90;;
19329;SDS011;9799;48.214;16.388;2022-07-11T14:02:13;2.78;;;1.80;;
19329;SDS011;9799;48.214;16.388;2022-07-11T14:05:36;2.42;;;1.80;;
19329;SDS011;9799;48.214;16.388;2022-07-11T14:08:57;2.92;;;1.80;;
19329;SDS011;9799;48.214;16.388;2022-07-11T14:12:19;1.95;;;1.55;;
19329;SDS011;9799;48.214;16.388;2022-07-11T14:15:40;4.20;;;1.77;;
19329;SDS011;9799;48.214;16.388;2022-07-11T14:19:01;3.13;;;1.80;;
19329;SDS011;9799;48.214;16.388;2022-07-11T14:22:25;4.18;;;2.25;;
19329;SDS011;9799;48.214;16.388;2022-07-11T14:25:46;5.63;;;1.80;;
19329;SDS011;9799;48.214;16.388;2022-07-11T14:29:07;1.73;;;1.63;;
19329;SDS011;9799;48.214;16.388;2022-07-11T14:32:29;1.85;;;1.40;;
19329;SDS011;9799;48.214;16.388;2022-07-11T14:35:50;2.05;;;1.80;;
19329;SDS011;9799;48.214;16.388;2022-07-11T14:39:13;3.88;;;1.90;;
19329;SDS011;9799;48.214;16.388;2022-07-11T14:42:34;3.05;;;1.67;;
19329;SDS011;9799;48.214;16.388;2022-07-11T14:45:56;5.28;;;1.95;;
19329;SDS011;9799;48.214;16.388;2022-07-11T14:49:17;1.70;;;1.60;;
19329;SDS011;9799;48.214;16.388;2022-07-11T14:52:39;7.38;;;5.07;;
19329;SDS011;9799;48.214;16.388;2022-07-11T14:56:01;3.35;;;3.05;;
19329;SDS011;9799;48.214;16.388;2022-07-11T14:59:23;2.85;;;2.20;;
19329;SDS011;9799;48.214;16.388;2022-07-11T15:02:46;1.70;;;1.45;;
19329;SDS011;9799;48.214;16.388;2022-07-11T15:06:24;2.42;;;1.75;;
19329;SDS011;9799;48.214;16.388;2022-07-11T15:10:00;6.53;;;2.25;;
19329;SDS011;9799;48.214;16.388;2022-07-11T15:13:36;2.88;;;2.00;;
19329;SDS011;9799;48.214;16.388;2022-07-11T15:17:00;5.18;;;2.10;;
19329;SDS011;9799;48.214;16.388;2022-07-11T15:20:21;3.30;;;1.70;;
19329;SDS011;9799;48.214;16.388;2022-07-11T15:23:42;2.25;;;1.90;;
19329;SDS011;9799;48.214;16.388;2022-07-11T15:27:04;3.08;;;1.80;;
19329;SDS011;9799;48.214;16.388;2022-07-11T15:30:27;2.20;;;1.85;;
19329;SDS011;9799;48.214;16.388;2022-07-11T15:33:48;1.70;;;1.60;;
19329;SDS011;9799;48.214;16.388;2022-07-11T15:37:10;1.90;;;1.75;;
19329;SDS011;9799;48.214;16.388;2022-07-11T15:40:31;10.52;;;2.13;;
19329;SDS011;9799;48.214;16.388;2022-07-11T15:43:53;2.03;;;1.70;;
19329;SDS011;9799;48.214;16.388;2022-07-11T15:47:15;1.95;;;1.70;;
19329;SDS011;9799;48.214;16.388;2022-07-11T15:50:37;2.03;;;1.73;;
19329;SDS011;9799;48.214;16.388;2022-07-11T15:53:58;1.92;;;1.70;;
19329;SDS011;9799;48.214;16.388;2022-07-11T15:57:21;5.60;;;1.73;;
19329;SDS011;9799;48.214;16.388;2022-07-11T16:00:42;2.05;;;1.60;;
19329;SDS011;9799;48.214;16.388;2022-07-11T16:04:08;1.83;;;1.35;;
19329;SDS011;9799;48.214;16.388;2022-07-11T16:07:29;3.88;;;2.28;;
19329;SDS011;9799;48.214;16.388;2022-07-11T16:10:51;3.45;;;2.10;;
19329;SDS011;9799;48.214;16.388;2022-07-11T16:14:12;1.80;;;1.70;;
19329;SDS011;9799;48.214;16.388;2022-07-11T16:17:34;2.67;;;1.95;;
19329;SDS011;9799;48.214;16.388;2022-07-11T16:20:57;3.88;;;1.90;;
19329;SDS011;9799;48.214;16.388;2022-07-11T16:24:18;4.47;;;2.00;;
19329;SDS011;9799;48.214;16.388;2022-07-11T16:27:39;2.05;;;1.92;;
19329;SDS011;9799;48.214;16.388;2022-07-11T16:31:01;6.78;;;1.98;;
19329;SDS011;9799;48.214;16.388;2022-07-11T16:34:22;1.73;;;1.58;;
19329;SDS011;9799;48.214;16.388;2022-07-11T16:37:44;2.00;;;1.80;;
19329;SDS011;9799;48.214;16.388;2022-07-11T16:41:05;2.88;;;2.15;;
19329;SDS011;9799;48.214;16.388;2022-07-11T16:44:44;3.80;;;1.92;;
19329;SDS011;9799;48.214;16.388;2022-07-11T16:48:05;1.60;;;1.50;;
19329;SDS011;9799;48.214;16.388;2022-07-11T16:51:27;3.13;;;1.50;;
19329;SDS011;9799;48.214;16.388;2022-07-11T16:54:49;2.42;;;1.50;;
19329;SDS011;9799;48.214;16.388;2022-07-11T16:58:10;2.40;;;1.50;;
19329;SDS011;9799;48.214;16.388;2022-07-11T17:01:31;2.15;;;1.50;;
19329;SDS011;9799;48.214;16.388;2022-07-11T17:04:53;1.80;;;1.40;;
19329;SDS011;9799;48.214;16.388;2022-07-11T17:08:14;1.73;;;1.30;;
19329;SDS011;9799;48.214;16.388;2022-07-11T17:11:54;1.55;;;1.40;;
19329;SDS011;9799;48.214;16.388;2022-07-11T17:15:17;1.55;;;1.23;;
19329;SDS011;9799;48.214;16.388;2022-07-11T17:18:38;1.95;;;1.40;;
19329;SDS011;9799;48.214;16.388;2022-07-11T17:22:00;1.45;;;1.30;;
19329;SDS011;9799;48.214;16.388;2022-07-11T17:25:22;1.55;;;1.35;;
19329;SDS011;9799;48.214;16.388;2022-07-11T17:28:45;2.92;;;1.73;;
19329;SDS011;9799;48.214;16.388;2022-07-11T17:32:06;2.15;;;1.95;;
19329;SDS011;9799;48.214;16.388;2022-07-11T17:35:27;4.53;;;1.52;;
19329;SDS011;9799;48.214;16.388;2022-07-11T17:38:49;1.60;;;1.50;;
19329;SDS011;9799;48.214;16.388;2022-07-11T17:42:11;2.28;;;1.50;;
19329;SDS011;9799;48.214;16.388;2022-07-11T17:45:34;1.40;;;1.30;;
19329;SDS011;9799;48.214;16.388;2022-07-11T17:48:55;1.70;;;1.55;;
19329;SDS011;9799;48.214;16.388;2022-07-11T17:52:17;7.35;;;1.83;;
19329;SDS011;9799;48.214;16.388;2022-07-11T17:55:38;2.13;;;1.52;;
19329;SDS011;9799;48.214;16.388;2022-07-11T17:58:59;3.70;;;1.70;;
19329;SDS011;9799;48.214;16.388;2022-07-11T18:02:22;3.83;;;1.30;;
19329;SDS011;9799;48.214;16.388;2022-07-11T18:05:46;2.85;;;1.92;;
19329;SDS011;9799;48.214;16.388;2022-07-11T18:09:07;2.03;;;1.48;;
19329;SDS011;9799;48.214;16.388;2022-07-11T18:12:28;2.78;;;1.90;;
19329;SDS011;9799;48.214;16.388;2022-07-11T18:15:49;1.70;;;1.60;;
19329;SDS011;9799;48.214;16.388;2022-07-11T18:19:12;1.65;;;1.50;;
19329;SDS011;9799;48.214;16.388;2022-07-11T18:22:33;2.25;;;1.95;;
19329;SDS011;9799;48.214;16.388;2022-07-11T18:25:54;1.63;;;1.42;;
19329;SDS011;9799;48.214;16.388;2022-07-11T18:29:16;6.60;;;1.45;;
19329;SDS011;9799;48.214;16.388;2022-07-11T18:32:38;2.35;;;1.60;;
19329;SDS011;9799;48.214;16.388;2022-07-11T18:36:01;1.20;;;1.15;;
19329;SDS011;9799;48.214;16.388;2022-07-11T18:39:22;1.55;;;1.45;;
19329;SDS011;9799;48.214;16.388;2022-07-11T18:43:00;7.03;;;1.52;;
19329;SDS011;9799;48.214;16.388;2022-07-11T18:46:21;1.42;;;1.20;;
19329;SDS011;9799;48.214;16.388;2022-07-11T18:49:42;2.08;;;1.63;;
19329;SDS011;9799;48.214;16.388;2022-07-11T18:53:08;2.42;;;2.03;;
19329;SDS011;9799;48.214;16.388;2022-07-11T18:56:29;1.40;;;1.30;;
19329;SDS011;9799;48.214;16.388;2022-07-11T18:59:51;2.95;;;2.50;;
19329;SDS011;9799;48.214;16.388;2022-07-11T19:03:13;2.45;;;1.73;;
19329;SDS011;9799;48.214;16.388;2022-07-11T19:06:34;3.28;;;2.00;;
19329;SDS011;9799;48.214;16.388;2022-07-11T19:09:57;3.63;;;1.85;;
19329;SDS011;9799;48.214;16.388;2022-07-11T19:13:18;3.47;;;1.65;;
19329;SDS011;9799;48.214;16.388;2022-07-11T19:16:40;2.22;;;2.00;;
19329;SDS011;9799;48.214;16.388;2022-07-11T19:20:02;2.33;;;1.95;;
19329;SDS011;9799;48.214;16.388;2022-07-11T19:23:24;3.90;;;1.90;;
19329;SDS011;9799;48.214;16.388;2022-07-11T19:26:47;2.22;;;2.03;;
19329;SDS011;9799;48.214;16.388;2022-07-11T19:30:08;1.85;;;1.75;;
19329;SDS011;9799;48.214;16.388;2022-07-11T19:33:33;3.45;;;2.15;;
19329;SDS011;9799;48.214;16.388;2022-07-11T19:36:55;2.30;;;1.90;;
19329;SDS011;9799;48.214;16.388;2022-07-11T19:40:16;2.42;;;2.13;;
19329;SDS011;9799;48.214;16.388;2022-07-11T19:43:38;2.05;;;1.85;;
19329;SDS011;9799;48.214;16.388;2022-07-11T19:47:00;2.47;;;1.90;;
19329;SDS011;9799;48.214;16.388;2022-07-11T19:50:21;2.05;;;1.80;;
19329;SDS011;9799;48.214;16.388;2022-07-11T19:53:42;4.00;;;2.50;;
19329;SDS011;9799;48.214;16.388;2022-07-11T19:57:03;3.78;;;2.20;;
19329;SDS011;9799;48.214;16.388;2022-07-11T20:00:43;2.72;;;2.15;;
19329;SDS011;9799;48.214;16.388;2022-07-11T20:04:05;4.50;;;2.50;;
19329;SDS011;9799;48.214;16.388;2022-07-11T20:07:26;2.55;;;2.22;;
19329;SDS011;9799;48.214;16.388;2022-07-11T20:10:48;3.40;;;2.25;;
19329;SDS011;9799;48.214;16.388;2022-07-11T20:14:09;2.35;;;2.05;;
19329;SDS011;9799;48.214;16.388;2022-07-11T20:17:35;3.83;;;2.45;;
19329;SDS011;9799;48.214;16.388;2022-07-11T20:20:56;7.15;;;2.50;;
19329;SDS011;9799;48.214;16.388;2022-07-11T20:24:17;6.00;;;2.90;;
19329;SDS011;9799;48.214;16.388;2022-07-11T20:27:39;2.53;;;2.33;;
19329;SDS011;9799;48.214;16.388;2022-07-11T20:31:00;3.33;;;3.03;;
19329;SDS011;9799;48.214;16.388;2022-07-11T20:34:24;7.13;;;2.45;;
19329;SDS011;9799;48.214;16.388;2022-07-11T20:37:45;3.17;;;2.95;;